createdAt,value
2018-01-08T00:03:30.745Z,3.40
2018-01-08T00:08:32.059Z,3.60
2018-01-08T00:13:33.395Z,4.33
2018-01-08T00:18:34.743Z,3.93
2018-01-08T00:23:36.073Z,3.17
2018-01-08T00:28:38.113Z,3.70
2018-01-08T00:33:39.552Z,2.97
2018-01-08T00:38:40.865Z,3.20
2018-01-08T00:43:42.172Z,3.50
2018-01-08T00:48:43.497Z,2.80
2018-01-08T00:53:44.809Z,3.13
2018-01-08T00:58:46.219Z,3.10
2018-01-08T01:03:48.304Z,3.67
2018-01-08T01:08:49.634Z,3.30
2018-01-08T01:13:51.044Z,3.27
2018-01-08T01:18:52.711Z,3.40
2018-01-08T01:23:54.842Z,3.40
2018-01-08T01:28:56.169Z,3.63
2018-01-08T01:33:57.551Z,3.47
2018-01-08T01:38:58.871Z,3.50
2018-01-08T01:44:00.968Z,3.47
2018-01-08T01:49:20.606Z,3.30
2018-01-08T01:54:22.695Z,3.83
2018-01-08T01:59:24.060Z,3.13
2018-01-08T02:04:25.386Z,4.13
2018-01-08T02:09:26.917Z,3.70
2018-01-08T02:14:29.058Z,3.97
2018-01-08T02:19:30.423Z,4.07
2018-01-08T02:24:31.763Z,5.60
2018-01-08T02:29:33.151Z,4.30
2018-01-08T02:34:34.451Z,4.50
2018-01-08T02:39:36.579Z,4.77
2018-01-08T02:44:38.066Z,4.50
2018-01-08T02:49:40.102Z,5.40
2018-01-08T02:54:41.503Z,5.43
2018-01-08T02:59:42.858Z,6.00
2018-01-08T03:04:44.163Z,4.13
2018-01-08T03:09:45.505Z,4.50
2018-01-08T03:14:46.903Z,4.43
2018-01-08T03:19:48.960Z,4.17
2018-01-08T03:24:50.314Z,6.10
2018-01-08T03:29:52.431Z,5.23
2018-01-08T03:34:53.800Z,6.40
2018-01-08T03:39:55.855Z,6.87
2018-01-08T03:44:57.208Z,5.97
2018-01-08T03:49:59.290Z,6.50
2018-01-08T03:55:00.628Z,6.37
2018-01-08T04:00:01.972Z,6.57
2018-01-08T04:05:03.327Z,6.53
2018-01-08T04:10:04.663Z,6.90
2018-01-08T04:15:06.835Z,5.90
2018-01-08T04:20:08.172Z,6.93
2018-01-08T04:25:10.237Z,6.50
2018-01-08T04:30:11.707Z,8.33
2018-01-08T04:35:13.430Z,9.17
2018-01-08T04:40:14.780Z,9.50
2018-01-08T04:45:16.094Z,10.33
2018-01-08T04:50:17.407Z,9.07
2018-01-08T04:55:18.780Z,8.90
2018-01-08T05:00:20.082Z,11.63
2018-01-08T05:05:21.413Z,11.83
2018-01-08T05:10:23.080Z,11.97
2018-01-08T05:15:25.248Z,11.43
2018-01-08T05:20:26.626Z,12.37
2018-01-08T05:25:27.949Z,11.30
2018-01-08T05:30:29.242Z,13.20
2018-01-08T05:35:30.552Z,13.27
2018-01-08T05:40:31.863Z,14.33
2018-01-08T05:45:33.902Z,14.13
2018-01-08T05:50:35.268Z,10.67
2018-01-08T05:55:36.580Z,12.43
2018-01-08T06:00:37.974Z,13.23
2018-01-08T06:05:39.275Z,10.77
2018-01-08T06:10:40.608Z,11.40
2018-01-08T06:15:42.700Z,11.10
2018-01-08T06:20:44.024Z,10.80
2018-01-08T06:25:45.359Z,10.33
2018-01-08T06:30:46.794Z,9.00
2018-01-08T06:35:48.121Z,9.10
2018-01-08T06:40:49.448Z,10.47
2018-01-08T06:45:50.747Z,10.23
2018-01-08T06:50:52.804Z,8.40
2018-01-08T06:55:54.123Z,12.43
2018-01-08T07:00:55.451Z,11.10
2018-01-08T07:05:56.758Z,13.20
2018-01-08T07:10:58.097Z,12.30
2018-01-08T07:15:59.418Z,13.43
2018-01-08T07:21:00.744Z,15.10
2018-01-08T07:26:02.061Z,13.90
2018-01-08T07:31:03.376Z,11.77
2018-01-08T07:36:04.723Z,11.47
2018-01-08T07:41:06.051Z,10.73
2018-01-08T07:46:07.356Z,11.60
2018-01-08T07:51:08.680Z,11.40
2018-01-08T07:56:10.017Z,11.07
2018-01-08T08:01:12.109Z,10.03
2018-01-08T08:06:13.569Z,11.17
2018-01-08T08:11:14.878Z,9.40
2018-01-08T08:16:16.225Z,11.10
2018-01-08T08:21:17.596Z,10.70
2018-01-08T08:26:18.920Z,11.83
2018-01-08T08:31:20.244Z,12.20
2018-01-08T08:36:21.570Z,11.20
2018-01-08T08:41:22.887Z,9.63
2018-01-08T08:46:24.214Z,9.40
2018-01-08T08:51:26.266Z,7.70
2018-01-08T08:56:27.574Z,8.17
2018-01-08T09:01:28.919Z,9.37
2018-01-08T09:06:30.215Z,9.10
2018-01-08T09:11:31.561Z,9.57
2018-01-08T09:16:32.966Z,7.63
2018-01-08T09:21:34.294Z,8.10
2018-01-08T09:26:35.823Z,9.10
2018-01-08T09:31:37.152Z,8.90
2018-01-08T09:36:39.256Z,8.97
2018-01-08T09:41:41.310Z,9.33
2018-01-08T09:46:43.108Z,8.97
2018-01-08T09:51:44.674Z,8.63
2018-01-08T09:56:46.129Z,7.80
2018-01-08T10:01:47.660Z,8.57
2018-01-08T10:07:07.373Z,8.17
2018-01-08T10:12:27.777Z,8.27
2018-01-08T10:17:47.551Z,8.27
2018-01-08T10:22:48.880Z,8.67
2018-01-08T10:27:50.213Z,7.50
2018-01-08T10:32:51.598Z,7.07
2018-01-08T10:37:53.666Z,7.30
2018-01-08T10:43:01.023Z,7.90
2018-01-08T10:48:09.277Z,6.30
2018-01-08T10:58:55.437Z,7.30
2018-01-08T11:03:59.435Z,7.63
2018-01-08T11:09:01.524Z,6.80
2018-01-08T11:14:02.880Z,6.87
2018-01-08T11:19:04.286Z,6.17
2018-01-08T11:24:05.622Z,6.20
2018-01-08T11:29:07.004Z,6.03
2018-01-08T11:34:08.500Z,6.10
2018-01-08T11:39:10.610Z,5.80
2018-01-08T11:44:12.688Z,4.50
2018-01-08T11:49:14.087Z,5.20
2018-01-08T11:54:15.408Z,5.50
2018-01-08T11:59:16.757Z,4.60
2018-01-08T12:04:18.183Z,5.60
2018-01-08T12:09:19.504Z,4.60
2018-01-08T12:14:20.882Z,5.10
2018-01-08T12:19:22.311Z,4.80
2018-01-08T12:24:24.475Z,4.97
2018-01-08T12:29:26.338Z,4.30
2018-01-08T12:34:27.799Z,4.50
2018-01-08T12:39:29.168Z,4.57
2018-01-08T12:44:30.536Z,5.53
2018-01-08T12:49:32.662Z,4.30
2018-01-08T12:54:34.008Z,4.23
2018-01-08T12:59:35.376Z,3.63
2018-01-08T13:04:36.721Z,4.23
2018-01-08T13:09:38.068Z,3.93
2018-01-08T13:14:39.439Z,3.73
2018-01-08T13:19:40.806Z,3.40
2018-01-08T13:24:42.141Z,3.77
2018-01-08T13:29:43.599Z,4.47
2018-01-08T13:34:44.943Z,3.70
2018-01-08T13:39:47.024Z,3.43
2018-01-08T13:44:48.432Z,3.03
2018-01-08T13:49:49.802Z,3.17
2018-01-08T13:54:51.155Z,3.20
2018-01-08T13:59:52.493Z,3.70
2018-01-08T14:04:53.846Z,4.60
2018-01-08T14:09:55.199Z,3.50
2018-01-08T14:14:57.302Z,3.67
2018-01-08T14:19:59.392Z,3.50
2018-01-08T14:25:00.771Z,3.50
2018-01-08T14:30:02.208Z,2.80
2018-01-08T14:35:03.556Z,3.33
2018-01-08T14:40:05.068Z,3.10
2018-01-08T14:45:07.208Z,2.70
2018-01-08T14:50:08.555Z,3.50
2018-01-08T14:55:11.680Z,2.87
2018-01-08T15:00:13.048Z,3.23
2018-01-08T15:05:14.501Z,2.80
2018-01-08T15:10:15.949Z,3.07
2018-01-08T15:15:17.319Z,2.60
2018-01-08T15:20:20.610Z,2.57
2018-01-08T15:25:23.043Z,3.60
2018-01-08T15:30:24.389Z,2.27
2018-01-08T15:35:25.707Z,1.67
2018-01-08T15:40:27.032Z,2.30
2018-01-08T15:45:28.380Z,2.40
2018-01-08T15:50:30.489Z,2.13
2018-01-08T15:55:32.706Z,2.97
2018-01-08T16:00:34.079Z,2.53
2018-01-08T16:05:36.210Z,2.53
2018-01-08T16:10:37.589Z,2.73
2018-01-08T16:15:39.658Z,2.50
2018-01-08T16:20:40.987Z,3.20
2018-01-08T16:25:43.043Z,2.97
2018-01-08T16:30:44.374Z,2.47
2018-01-08T16:35:46.434Z,3.00
2018-01-08T16:40:47.776Z,2.60
2018-01-08T16:45:49.094Z,3.10
2018-01-08T16:50:50.410Z,2.70
2018-01-08T16:55:51.745Z,14.50
2018-01-08T17:00:53.095Z,8.30
2018-01-08T17:05:54.410Z,7.37
2018-01-08T17:10:56.476Z,4.23
2018-01-08T17:15:58.159Z,2.97
2018-01-08T17:20:59.521Z,11.63
2018-01-08T17:26:01.633Z,4.00
2018-01-08T17:31:03.211Z,8.23
2018-01-08T17:36:04.573Z,5.63
2018-01-08T17:41:05.931Z,2.20
2018-01-08T17:46:07.290Z,4.07
2018-01-08T17:51:08.627Z,3.10
2018-01-08T17:56:09.946Z,3.10
2018-01-08T18:01:11.352Z,3.20
2018-01-08T18:06:13.466Z,4.87
2018-01-08T18:11:15.290Z,2.70
2018-01-08T18:16:16.616Z,5.73
2018-01-08T18:21:17.966Z,4.37
2018-01-08T18:26:19.661Z,4.93
2018-01-08T18:31:21.840Z,4.37
2018-01-08T18:36:23.241Z,5.70
2018-01-08T18:41:24.974Z,4.13
2018-01-08T18:46:27.056Z,3.63
2018-01-08T18:51:28.443Z,3.00
2018-01-08T18:56:30.143Z,2.90
2018-01-08T19:01:32.589Z,2.97
2018-01-08T19:06:34.084Z,2.80
2018-01-08T19:11:37.217Z,2.70
2018-01-08T19:16:40.271Z,3.80
2018-01-08T19:21:41.656Z,2.77
2018-01-08T19:26:43.491Z,3.30
2018-01-08T19:31:46.306Z,3.80
2018-01-08T19:36:47.899Z,4.17
2018-01-08T19:41:50.120Z,3.70
2018-01-08T19:46:51.493Z,2.40
2018-01-08T19:51:53.420Z,3.47
2018-01-08T19:56:55.257Z,2.97
2018-01-08T20:01:56.596Z,3.27
2018-01-08T20:06:57.992Z,3.27
2018-01-08T20:12:00.132Z,3.20
2018-01-08T20:17:01.468Z,2.73
2018-01-08T20:22:02.823Z,4.30
2018-01-08T20:27:04.208Z,2.53
2018-01-08T20:32:05.557Z,3.47
2018-01-08T20:37:06.925Z,4.30
2018-01-08T20:42:08.304Z,3.90
2018-01-08T20:47:10.557Z,3.87
2018-01-08T20:52:12.634Z,3.73
2018-01-08T20:57:13.982Z,4.73
2018-01-08T21:02:15.349Z,3.90
2018-01-08T21:07:17.430Z,3.80
2018-01-08T21:12:18.762Z,3.33
2018-01-08T21:17:20.084Z,3.80
2018-01-08T21:22:21.427Z,3.70
2018-01-08T21:27:23.496Z,4.70
2018-01-08T21:32:24.847Z,5.47
2018-01-08T21:37:26.174Z,5.63
2018-01-08T21:42:27.512Z,4.87
2018-01-08T21:47:28.840Z,4.93
2018-01-08T21:52:30.192Z,3.60
2018-01-08T21:57:31.522Z,4.77
2018-01-08T22:02:32.952Z,5.63
2018-01-08T22:07:34.359Z,5.80
2018-01-08T22:12:35.757Z,4.60
2018-01-08T22:17:37.103Z,5.50
2018-01-08T22:22:38.448Z,5.40
2018-01-08T22:27:39.867Z,6.30
2018-01-08T22:32:41.219Z,7.00
2018-01-08T22:37:42.534Z,6.10
2018-01-08T22:42:43.939Z,6.43
2018-01-08T22:47:45.286Z,5.20
2018-01-08T22:52:46.662Z,6.00
2018-01-08T22:57:48.704Z,6.33
2018-01-08T23:02:50.064Z,6.77
2018-01-08T23:07:51.359Z,6.60
2018-01-08T23:12:52.735Z,5.67
2018-01-08T23:17:54.804Z,6.73
2018-01-08T23:22:56.160Z,6.50
2018-01-08T23:27:57.510Z,6.40
2018-01-08T23:32:58.896Z,5.53
2018-01-08T23:38:00.220Z,7.33
2018-01-08T23:43:01.615Z,7.60
2018-01-08T23:48:02.920Z,5.80
2018-01-08T23:53:04.253Z,6.23
2018-01-08T23:58:05.662Z,7.33
